Alplaus, NY

5:09 PM EDT on September 01, 2015 (GMT -0400)
Daily Gazette | | Change Station
CLOSE
Current Station
Personal Weather Station
Location: Schenectady, NY
Elevation: 295 ft
Nearby Weather Stations

Elev 295 ft 42.83 °N, 73.92 °W | Updated 11 seconds ago

Partly Cloudy
Partly Cloudy
87.1 °F
Feels Like 88 °F
N
0.0
Wind Variable Wind from NNW
Gusts 0.0 mph

Today
High -- | Low -- °F
--% Chance of Precip.
Yesterday
High -- | Low -- °F
Precip. -- in
6:19 AM 7:30 PM
Waning Gibbous, 86% visible
Pressure 30.01 in
Visibility 10.0 miles
Clouds Few 4400 ft
Heat Index 88 °F
Dew Point 64 °F
Humidity 46%
Rainfall 0.00 in
Snow Depth Not available.
UV 3 out of 12
Pollen 9.30 out of 12
Air Quality Not available.
Flu Activity Not available.
METAR KALB 012051Z VRB04KT 10SM FEW044 30/16 A3001 RMK AO2 SLP160 T03000161 56013
Pressure 30.01 in
Visibility 10.0 miles
Clouds Few 4400 ft
Heat Index 88 °F
Dew Point 64 °F
Humidity 46%
Rainfall 0.00 in
Snow Depth Not available.
UV 3 out of 12
Pollen 9.30 out of 12
Air Quality Not available.
Flu Activity Not available.
METAR KALB 012051Z VRB04KT 10SM FEW044 30/16 A3001 RMK AO2 SLP160 T03000161 56013

10-Day Weather Forecast

×

Almanac

Astronomy

Sep. 01, 2015 Rise Set
Actual Time
Civil Twilight
Nautical Twilight
Astronomical Twilight
Moon
Length of Visible Light
Length of Day
Tomorrow will be .
, % of the Moon is Illuminated

Today's Extremes

State Highs State Lows

Community

WunderPhotos

Upload Photos

1,851,616 photos uploaded!

WunderBlogs® & News

Nearby

Air Quality

  Air Quality AQ Index Pollutant
Not available.

Snow Depth

Station Depth Elevation

Earthquake Activity

City Distance Mag. Time & Date
Minimum magnitude displayed is 2.5.

Coastal Water Temperatures

Place Temperature

Stations

Nearby Weather Stations

Station Location Temp. Windchill Dew Point Humidity Wind Precip. Elev Updated Type